createdAt,value
2018-08-17T00:00:28.025Z,27.83
2018-08-17T00:02:56.500Z,33.67
2018-08-17T00:05:25.055Z,29.73
2018-08-17T00:07:53.470Z,30.57
2018-08-17T00:10:22.072Z,29.63
2018-08-17T00:12:50.623Z,25.87
2018-08-17T00:15:19.622Z,29.37
2018-08-17T00:17:48.117Z,24.03
2018-08-17T00:20:16.695Z,27.37
2018-08-17T00:22:45.337Z,25.73
2018-08-17T00:25:13.868Z,23.73
2018-08-17T00:27:42.533Z,22.97
2018-08-17T00:30:11.238Z,22.73
2018-08-17T00:32:39.732Z,21.13
2018-08-17T00:35:08.206Z,19.97
2018-08-17T00:37:36.772Z,17.43
2018-08-17T00:40:05.398Z,20.83
2018-08-17T00:42:33.996Z,16.77
2018-08-17T00:45:02.521Z,18.10
2018-08-17T00:47:31.104Z,18.87
2018-08-17T00:49:59.600Z,16.20
2018-08-17T00:52:28.174Z,15.23
2018-08-17T00:54:56.678Z,19.17
2018-08-17T00:57:25.159Z,14.60
2018-08-17T00:59:53.740Z,14.70
2018-08-17T01:02:22.329Z,14.40
2018-08-17T01:04:50.915Z,15.10
2018-08-17T01:07:19.488Z,16.37
2018-08-17T01:09:47.923Z,16.60
2018-08-17T01:12:16.453Z,15.67
2018-08-17T01:14:44.940Z,12.90
2018-08-17T01:17:13.417Z,13.40
2018-08-17T01:19:41.879Z,11.83
2018-08-17T01:22:10.369Z,8.97
2018-08-17T01:24:38.834Z,9.60
2018-08-17T01:27:07.262Z,11.97
2018-08-17T01:29:35.700Z,10.30
2018-08-17T01:32:04.325Z,8.33
2018-08-17T01:34:32.753Z,8.83
2018-08-17T01:37:01.243Z,9.40
2018-08-17T01:39:29.747Z,11.93
2018-08-17T01:41:58.264Z,16.80
2018-08-17T01:44:26.838Z,14.93
2018-08-17T01:46:55.384Z,13.10
2018-08-17T01:49:23.805Z,14.63
2018-08-17T01:51:52.361Z,17.67
2018-08-17T01:54:20.830Z,15.33
2018-08-17T01:56:49.317Z,12.83
2018-08-17T01:59:17.833Z,16.20
2018-08-17T02:01:46.381Z,13.57
2018-08-17T02:04:15.808Z,14.43
2018-08-17T02:06:44.392Z,13.80
2018-08-17T02:09:13.276Z,14.90
2018-08-17T02:11:46.732Z,14.53
2018-08-17T02:14:15.234Z,14.57
2018-08-17T02:16:43.725Z,15.80
2018-08-17T02:19:12.233Z,15.83
2018-08-17T02:21:40.905Z,16.90
2018-08-17T02:24:09.489Z,15.27
2018-08-17T02:26:37.978Z,22.73
2018-08-17T02:29:06.766Z,19.63
2018-08-17T02:31:35.344Z,16.90
2018-08-17T02:34:03.900Z,16.20
2018-08-17T02:36:32.398Z,17.83
2018-08-17T02:39:00.883Z,15.57
2018-08-17T02:41:29.461Z,17.33
2018-08-17T02:43:57.951Z,19.73
2018-08-17T02:46:26.521Z,34.37
2018-08-17T02:48:54.998Z,31.43
2018-08-17T02:51:23.535Z,34.60
2018-08-17T02:53:52.225Z,31.60
2018-08-17T02:56:20.751Z,42.47
2018-08-17T02:58:49.297Z,39.33
2018-08-17T03:01:17.839Z,43.83
2018-08-17T03:03:46.277Z,35.97
2018-08-17T03:06:14.700Z,39.73
2018-08-17T03:08:43.176Z,33.83
2018-08-17T03:11:11.638Z,36.97
2018-08-17T03:13:40.179Z,41.00
2018-08-17T03:16:08.738Z,35.80
2018-08-17T03:18:37.193Z,31.97
2018-08-17T03:21:05.823Z,32.27
2018-08-17T03:23:34.377Z,30.90
2018-08-17T03:26:02.824Z,42.57
2018-08-17T03:28:31.305Z,33.17
2018-08-17T03:30:59.755Z,28.23
2018-08-17T03:33:28.206Z,27.80
2018-08-17T03:35:56.652Z,26.60
2018-08-17T03:38:25.174Z,29.33
2018-08-17T03:40:53.794Z,28.07
2018-08-17T03:43:22.370Z,26.57
2018-08-17T03:45:50.949Z,27.83
2018-08-17T03:48:19.495Z,32.47
2018-08-17T03:50:48.070Z,35.03
2018-08-17T03:53:16.574Z,30.37
2018-08-17T03:55:45.056Z,27.30
2018-08-17T03:58:13.558Z,20.13
2018-08-17T04:00:42.118Z,37.23
2018-08-17T04:03:10.589Z,39.23
2018-08-17T04:05:39.049Z,27.70
2018-08-17T04:08:07.656Z,32.67
2018-08-17T04:10:36.135Z,32.53
2018-08-17T04:13:04.864Z,35.70
2018-08-17T04:15:33.563Z,48.57
2018-08-17T04:18:02.090Z,36.90
2018-08-17T04:20:30.694Z,53.47
2018-08-17T04:22:59.361Z,67.67
2018-08-17T04:25:27.842Z,43.43
2018-08-17T04:27:56.361Z,33.17
2018-08-17T04:30:24.922Z,35.77
2018-08-17T04:32:53.379Z,42.47
2018-08-17T04:35:21.916Z,38.03
2018-08-17T04:37:50.482Z,30.10
2018-08-17T04:40:19.102Z,32.43
2018-08-17T04:42:47.632Z,33.13
2018-08-17T04:45:16.128Z,29.37
2018-08-17T04:47:44.706Z,27.73
2018-08-17T04:50:13.175Z,23.43
2018-08-17T04:52:41.578Z,39.87
2018-08-17T04:55:10.198Z,33.73
2018-08-17T04:57:38.885Z,27.33
2018-08-17T05:00:08.714Z,28.50
2018-08-17T05:02:37.531Z,26.87
2018-08-17T05:05:06.943Z,31.97
2018-08-17T05:07:35.625Z,29.73
2018-08-17T05:10:04.644Z,29.17
2018-08-17T05:12:36.390Z,27.10
2018-08-17T05:15:05.303Z,25.10
2018-08-17T05:17:33.962Z,29.80
2018-08-17T05:20:02.449Z,25.93
2018-08-17T05:22:30.889Z,30.63
2018-08-17T05:24:59.383Z,31.83
2018-08-17T05:27:27.876Z,33.70
2018-08-17T05:29:56.414Z,41.80
2018-08-17T05:32:24.982Z,33.67
2018-08-17T05:34:53.534Z,37.00
2018-08-17T05:37:22.101Z,30.47
2018-08-17T05:39:50.621Z,32.40
2018-08-17T05:42:19.271Z,36.63
2018-08-17T05:44:47.804Z,35.20
2018-08-17T05:47:16.486Z,36.17
2018-08-17T05:49:45.026Z,34.43
2018-08-17T05:52:13.519Z,34.93
2018-08-17T05:54:42.043Z,33.30
2018-08-17T05:57:10.598Z,32.93
2018-08-17T05:59:39.176Z,36.70
2018-08-17T06:02:07.805Z,30.63
2018-08-17T06:04:36.322Z,28.73
2018-08-17T06:07:04.914Z,31.63
2018-08-17T06:09:33.386Z,32.00
2018-08-17T06:12:02.036Z,30.77
2018-08-17T06:14:30.656Z,27.67
2018-08-17T06:17:01.212Z,29.80
2018-08-17T06:19:29.826Z,27.47
2018-08-17T06:21:58.281Z,24.63
2018-08-17T06:24:26.733Z,25.43
2018-08-17T06:26:55.289Z,22.50
2018-08-17T06:29:23.874Z,23.57
2018-08-17T06:31:52.409Z,23.90
2018-08-17T06:34:20.890Z,26.37
2018-08-17T06:36:49.374Z,24.90
2018-08-17T06:39:17.863Z,24.53
2018-08-17T06:41:46.408Z,25.10
2018-08-17T06:44:15.003Z,22.00
2018-08-17T06:46:43.504Z,22.60
2018-08-17T06:49:12.012Z,26.23
2018-08-17T06:51:40.484Z,25.17
2018-08-17T06:54:09.025Z,25.50
2018-08-17T06:56:37.529Z,27.70
2018-08-17T06:59:06.353Z,25.63
2018-08-17T07:01:34.909Z,32.77
2018-08-17T07:04:03.513Z,28.27
2018-08-17T07:06:32.082Z,33.10
2018-08-17T07:09:00.616Z,21.60
2018-08-17T07:11:29.177Z,21.80
2018-08-17T07:13:57.753Z,19.03
2018-08-17T07:16:26.329Z,14.00
2018-08-17T07:18:54.940Z,15.30
2018-08-17T07:21:23.467Z,15.23
2018-08-17T07:23:51.970Z,16.23
2018-08-17T07:26:20.690Z,14.90
2018-08-17T07:28:49.122Z,16.27
2018-08-17T07:31:17.623Z,16.23
2018-08-17T07:33:46.076Z,15.80
2018-08-17T07:36:14.711Z,20.00
2018-08-17T07:39:00.837Z,18.93
2018-08-17T07:41:29.470Z,17.27
2018-08-17T07:43:57.933Z,17.77
2018-08-17T07:46:26.381Z,17.40
2018-08-17T07:48:54.935Z,20.80
2018-08-17T07:51:23.491Z,19.60
2018-08-17T07:53:52.114Z,22.40
2018-08-17T07:56:20.679Z,24.17
2018-08-17T07:58:49.344Z,23.27
2018-08-17T08:01:17.811Z,29.13
2018-08-17T08:03:46.389Z,25.33
2018-08-17T08:06:14.973Z,26.87
2018-08-17T08:08:43.456Z,29.50
2018-08-17T08:11:11.995Z,30.80
2018-08-17T08:13:40.626Z,26.87
2018-08-17T08:16:09.101Z,24.60
2018-08-17T08:18:47.766Z,22.77
2018-08-17T08:21:16.318Z,23.10
2018-08-17T08:23:44.933Z,17.97
2018-08-17T08:26:13.524Z,20.73
2018-08-17T08:28:47.711Z,25.10
2018-08-17T08:31:16.299Z,19.63
2018-08-17T08:33:44.768Z,21.83
2018-08-17T08:36:13.281Z,21.20
2018-08-17T08:38:41.864Z,22.27
2018-08-17T08:41:10.372Z,22.67
2018-08-17T08:43:38.914Z,23.57
2018-08-17T08:46:07.488Z,22.33
2018-08-17T08:48:36.072Z,22.97
2018-08-17T08:51:04.563Z,21.90
2018-08-17T08:53:33.035Z,24.13
2018-08-17T08:56:01.799Z,19.77
2018-08-17T08:58:30.328Z,22.17
2018-08-17T09:00:58.892Z,21.80
2018-08-17T09:03:27.367Z,22.53
2018-08-17T09:05:55.857Z,22.97
2018-08-17T09:08:24.454Z,22.93
2018-08-17T09:10:53.075Z,27.33
2018-08-17T09:13:21.651Z,28.30
2018-08-17T09:15:50.278Z,24.03
2018-08-17T09:18:18.883Z,25.33
2018-08-17T09:20:47.651Z,21.73
2018-08-17T09:23:16.149Z,29.30
2018-08-17T09:25:44.805Z,34.77
2018-08-17T09:28:22.243Z,26.50
2018-08-17T09:30:50.804Z,25.67
2018-08-17T09:33:19.314Z,33.47
2018-08-17T09:35:47.872Z,26.97
2018-08-17T09:38:16.369Z,29.43
2018-08-17T09:40:44.866Z,29.50
2018-08-17T09:43:13.315Z,23.17
2018-08-17T09:45:41.903Z,31.77
2018-08-17T09:48:10.516Z,24.87
2018-08-17T09:50:39.071Z,23.73
2018-08-17T09:53:07.660Z,23.60
2018-08-17T09:55:36.227Z,20.67
2018-08-17T09:58:04.716Z,23.40
2018-08-17T10:00:39.108Z,22.13
2018-08-17T10:03:08.692Z,21.50
2018-08-17T10:05:40.333Z,22.60
2018-08-17T10:08:14.097Z,21.80
2018-08-17T10:10:43.377Z,25.87
2018-08-17T10:13:11.980Z,24.50
2018-08-17T10:15:40.622Z,26.13
2018-08-17T10:18:09.615Z,23.13
2018-08-17T10:20:38.115Z,18.37
2018-08-17T10:23:16.313Z,20.17
2018-08-17T10:25:44.877Z,25.20
2018-08-17T10:28:13.429Z,20.87
2018-08-17T10:30:41.897Z,18.23
2018-08-17T10:33:10.434Z,17.17
2018-08-17T10:35:39.093Z,15.23
2018-08-17T10:38:08.380Z,14.80
2018-08-17T10:40:37.029Z,16.30
2018-08-17T10:43:07.086Z,19.93
2018-08-17T10:45:35.600Z,19.37
2018-08-17T10:48:04.351Z,18.10
2018-08-17T10:50:34.691Z,13.10
2018-08-17T10:53:04.427Z,17.37
2018-08-17T10:55:42.738Z,15.93
2018-08-17T10:58:14.918Z,16.63
2018-08-17T11:00:43.434Z,14.47
2018-08-17T11:03:12.112Z,11.10
2018-08-17T11:05:40.723Z,13.90
2018-08-17T11:08:17.178Z,12.03
2018-08-17T11:10:45.675Z,13.37
2018-08-17T11:13:14.170Z,15.17
2018-08-17T11:15:42.758Z,11.43
2018-08-17T11:18:11.406Z,12.60
2018-08-17T11:20:39.911Z,11.17
2018-08-17T11:23:08.373Z,12.30
2018-08-17T11:25:36.868Z,12.27
2018-08-17T11:28:05.464Z,10.83
2018-08-17T11:30:33.941Z,13.10
2018-08-17T11:33:02.516Z,9.57
2018-08-17T11:35:31.124Z,16.03
2018-08-17T11:37:59.636Z,10.00
2018-08-17T11:40:28.192Z,9.27
2018-08-17T11:42:56.859Z,8.63
2018-08-17T11:45:26.457Z,10.80
2018-08-17T11:47:55.900Z,8.97
2018-08-17T11:50:25.446Z,11.77
2018-08-17T11:52:55.184Z,10.40
2018-08-17T11:55:24.904Z,11.23
2018-08-17T11:57:53.490Z,8.70
2018-08-17T12:00:22.210Z,12.17
2018-08-17T12:02:50.741Z,8.17
2018-08-17T12:05:19.416Z,9.07
2018-08-17T12:07:48.442Z,6.67
2018-08-17T12:10:17.013Z,6.60
2018-08-17T12:13:08.789Z,11.17
2018-08-17T12:15:42.314Z,9.20
2018-08-17T12:18:11.267Z,10.90
2018-08-17T12:20:39.896Z,5.93
2018-08-17T12:23:08.431Z,7.20
2018-08-17T12:25:43.702Z,6.37
2018-08-17T12:28:36.897Z,8.33
2018-08-17T12:31:05.644Z,7.37
2018-08-17T12:33:34.210Z,7.20
2018-08-17T12:36:02.732Z,4.40
2018-08-17T12:38:31.229Z,5.40
2018-08-17T12:40:59.775Z,8.20
2018-08-17T12:43:33.618Z,6.97
2018-08-17T12:46:02.189Z,5.67
2018-08-17T12:48:30.673Z,7.33
2018-08-17T12:51:06.392Z,6.63
2018-08-17T12:53:34.913Z,7.80
2018-08-17T12:56:03.430Z,6.27
2018-08-17T12:58:51.657Z,5.07
2018-08-17T13:01:20.138Z,4.33
2018-08-17T13:03:48.706Z,5.57
2018-08-17T13:06:38.212Z,7.13
2018-08-17T13:09:07.590Z,7.13
2018-08-17T13:11:42.043Z,6.50
2018-08-17T13:14:12.637Z,6.83
2018-08-17T13:16:42.668Z,4.57
2018-08-17T13:19:11.154Z,5.27
2018-08-17T13:21:39.624Z,6.47
2018-08-17T13:24:08.522Z,8.50
2018-08-17T13:26:37.122Z,6.47
2018-08-17T13:29:05.808Z,5.43
2018-08-17T13:31:34.464Z,7.47
2018-08-17T13:34:02.971Z,8.30
2018-08-17T13:36:31.675Z,7.00
2018-08-17T13:39:00.328Z,8.10
2018-08-17T13:41:28.883Z,5.97
2018-08-17T13:43:57.372Z,6.60
2018-08-17T13:46:26.049Z,8.47
2018-08-17T13:48:55.137Z,7.47
2018-08-17T13:51:23.608Z,9.67
2018-08-17T13:53:52.164Z,6.60
2018-08-17T13:56:20.738Z,7.50
2018-08-17T13:58:49.295Z,6.20
2018-08-17T14:01:17.765Z,8.13
2018-08-17T14:03:46.374Z,6.33
2018-08-17T14:06:14.890Z,7.23
2018-08-17T14:08:43.418Z,8.33
2018-08-17T14:11:12.119Z,8.63
2018-08-17T14:13:40.983Z,7.07
2018-08-17T14:16:09.734Z,7.33
2018-08-17T14:18:46.903Z,6.97
2018-08-17T14:21:15.422Z,7.40
2018-08-17T14:23:43.938Z,5.03
2018-08-17T14:26:12.796Z,3.73
2018-08-17T14:28:42.418Z,5.43
2018-08-17T14:31:10.919Z,4.17
2018-08-17T14:33:39.541Z,6.90
2018-08-17T14:36:08.611Z,5.33
2018-08-17T14:38:37.737Z,4.20
2018-08-17T14:41:06.545Z,6.07
2018-08-17T14:43:35.268Z,6.70
2018-08-17T14:46:03.770Z,5.63
2018-08-17T14:48:32.522Z,10.23
2018-08-17T14:51:01.111Z,6.43
2018-08-17T14:53:29.596Z,8.20
2018-08-17T14:55:58.093Z,6.77
2018-08-17T14:58:26.560Z,9.80
2018-08-17T15:00:55.162Z,4.70
2018-08-17T15:03:45.746Z,7.77
2018-08-17T15:06:14.437Z,4.70
2018-08-17T15:08:42.894Z,5.57
2018-08-17T15:11:11.377Z,5.60
2018-08-17T15:13:40.081Z,9.00
2018-08-17T15:16:09.736Z,4.40
2018-08-17T15:18:38.252Z,8.60
2018-08-17T15:21:07.004Z,8.10
2018-08-17T15:23:35.534Z,7.73
2018-08-17T15:26:04.149Z,5.70
2018-08-17T15:28:32.686Z,3.07
2018-08-17T15:31:01.207Z,8.07
2018-08-17T15:33:29.912Z,7.33
2018-08-17T15:35:58.534Z,7.60
2018-08-17T15:38:27.016Z,9.27
2018-08-17T15:40:55.524Z,6.27
2018-08-17T15:43:24.035Z,11.20
2018-08-17T15:45:52.606Z,9.97
2018-08-17T15:48:21.169Z,7.43
2018-08-17T15:50:49.609Z,8.87
2018-08-17T15:53:18.109Z,5.33
2018-08-17T15:55:46.670Z,10.30
2018-08-17T15:58:15.437Z,7.93
2018-08-17T16:00:44.069Z,13.30
2018-08-17T16:03:12.600Z,7.30
2018-08-17T16:05:41.245Z,6.57
2018-08-17T16:08:09.932Z,5.37
2018-08-17T16:10:38.547Z,7.60
2018-08-17T16:13:07.085Z,7.20
2018-08-17T16:15:35.620Z,9.57
2018-08-17T16:18:04.188Z,5.07
2018-08-17T16:20:32.662Z,7.80
2018-08-17T16:23:01.257Z,11.00
2018-08-17T16:25:29.812Z,5.43
2018-08-17T16:27:58.467Z,6.60
2018-08-17T16:30:26.920Z,6.70
2018-08-17T16:32:55.456Z,10.03
2018-08-17T16:35:24.026Z,6.47
2018-08-17T16:37:52.532Z,7.73
2018-08-17T16:40:20.982Z,7.03
2018-08-17T16:42:51.350Z,5.17
2018-08-17T16:45:36.404Z,11.20
2018-08-17T16:48:05.397Z,4.57
2018-08-17T16:50:33.921Z,5.43
2018-08-17T16:53:02.498Z,8.00
2018-08-17T16:55:31.041Z,7.53
2018-08-17T16:57:59.565Z,7.73
2018-08-17T17:00:28.253Z,12.77
2018-08-17T17:02:56.674Z,8.37
2018-08-17T17:05:25.158Z,11.20
2018-08-17T17:07:53.692Z,9.17
2018-08-17T17:10:23.532Z,10.70
2018-08-17T17:12:52.048Z,8.17
2018-08-17T17:15:20.673Z,11.23
2018-08-17T17:17:57.085Z,10.57
2018-08-17T17:20:26.472Z,16.70
2018-08-17T17:22:55.090Z,12.00
2018-08-17T17:25:23.621Z,10.20
2018-08-17T17:27:52.161Z,9.20
2018-08-17T17:30:20.621Z,9.67
2018-08-17T17:32:49.253Z,10.37
2018-08-17T17:35:17.800Z,13.27
2018-08-17T17:37:46.300Z,8.20
2018-08-17T17:40:14.884Z,11.57
2018-08-17T17:42:43.354Z,14.37
2018-08-17T17:45:11.937Z,9.23
2018-08-17T17:47:40.468Z,14.33
2018-08-17T17:50:09.017Z,11.13
2018-08-17T17:52:37.476Z,11.23
2018-08-17T17:55:05.941Z,10.03
2018-08-17T17:57:34.538Z,11.67
2018-08-17T18:00:03.192Z,9.67
2018-08-17T18:02:31.754Z,9.83
2018-08-17T18:05:01.259Z,11.07
2018-08-17T18:07:39.342Z,10.60
2018-08-17T18:10:08.342Z,14.27
2018-08-17T18:12:54.628Z,13.47
2018-08-17T18:15:23.207Z,12.67
2018-08-17T18:17:51.796Z,10.30
2018-08-17T18:21:07.589Z,11.90
2018-08-17T18:23:36.056Z,12.47
2018-08-17T18:26:09.556Z,11.20
2018-08-17T18:28:38.163Z,12.17
2018-08-17T18:31:09.884Z,9.37
2018-08-17T18:33:38.440Z,8.53
2018-08-17T18:36:07.015Z,10.60
2018-08-17T18:38:35.539Z,13.47
2018-08-17T18:41:04.293Z,13.20
2018-08-17T18:43:32.772Z,14.13
2018-08-17T18:46:01.211Z,15.00
2018-08-17T18:48:30.089Z,14.03
2018-08-17T18:50:58.662Z,11.50
2018-08-17T18:53:27.160Z,13.93
2018-08-17T18:55:55.990Z,10.37
2018-08-17T18:58:24.541Z,12.20
2018-08-17T19:00:53.413Z,14.03
2018-08-17T19:03:21.897Z,12.90
2018-08-17T19:05:50.612Z,14.03
2018-08-17T19:08:19.777Z,14.27
2018-08-17T19:10:48.492Z,11.67
2018-08-17T19:13:17.302Z,8.57
2018-08-17T19:15:50.354Z,20.53
2018-08-17T19:18:19.539Z,11.17
2018-08-17T19:20:48.330Z,15.87
2018-08-17T19:23:17.256Z,13.40
2018-08-17T19:25:46.143Z,12.70
2018-08-17T19:28:14.845Z,16.33
2018-08-17T19:30:50.972Z,13.30
2018-08-17T19:33:19.964Z,17.00
2018-08-17T19:35:49.346Z,14.23
2018-08-17T19:38:18.112Z,13.83
2018-08-17T19:40:46.731Z,13.80
2018-08-17T19:43:15.523Z,15.90
2018-08-17T19:45:44.211Z,13.27
2018-08-17T19:48:30.449Z,13.40
2018-08-17T19:50:59.053Z,16.10
2018-08-17T19:53:27.841Z,13.13
2018-08-17T19:55:56.400Z,15.00
2018-08-17T19:58:25.396Z,19.50
2018-08-17T20:00:53.992Z,14.00
2018-08-17T20:03:22.954Z,10.80
2018-08-17T20:05:51.570Z,15.57
2018-08-17T20:08:20.283Z,11.00
2018-08-17T20:10:48.979Z,11.03
2018-08-17T20:13:17.561Z,13.00
2018-08-17T20:15:46.251Z,15.13
2018-08-17T20:18:14.744Z,15.60
2018-08-17T20:20:43.589Z,10.30
2018-08-17T20:23:12.149Z,13.10
2018-08-17T20:25:41.031Z,9.50
2018-08-17T20:28:09.574Z,12.83
2018-08-17T20:30:38.241Z,11.63
2018-08-17T20:33:15.976Z,13.97
2018-08-17T20:35:44.629Z,15.90
2018-08-17T20:38:13.358Z,10.40
2018-08-17T20:40:42.050Z,13.47
2018-08-17T20:43:10.762Z,11.40
2018-08-17T20:45:39.343Z,10.53
2018-08-17T20:48:08.145Z,8.63
2018-08-17T20:50:36.794Z,8.40
2018-08-17T20:53:05.530Z,10.43
2018-08-17T20:55:34.407Z,13.33
2018-08-17T20:58:38.271Z,12.63
2018-08-17T21:01:06.904Z,11.90
2018-08-17T21:03:35.506Z,10.43
2018-08-17T21:06:04.242Z,14.40
2018-08-17T21:08:32.844Z,13.07
2018-08-17T21:11:01.453Z,9.17
2018-08-17T21:13:30.217Z,12.33
2018-08-17T21:15:58.884Z,12.37
2018-08-17T21:18:27.512Z,9.47
2018-08-17T21:20:56.085Z,7.27
2018-08-17T21:23:24.595Z,10.57
2018-08-17T21:25:53.148Z,8.73
2018-08-17T21:28:21.775Z,8.27
2018-08-17T21:30:50.334Z,10.03
2018-08-17T21:33:19.642Z,9.10
2018-08-17T21:35:48.911Z,8.87
2018-08-17T21:38:17.550Z,10.60
2018-08-17T21:40:46.079Z,10.80
2018-08-17T21:43:14.639Z,9.23
2018-08-17T21:45:46.279Z,14.87
2018-08-17T21:48:19.170Z,13.07
2018-08-17T21:50:48.055Z,7.67
2018-08-17T21:53:16.573Z,10.33
2018-08-17T21:55:45.295Z,10.10
2018-08-17T21:58:14.665Z,11.00
2018-08-17T22:01:06.130Z,15.73
2018-08-17T22:03:36.981Z,15.50
2018-08-17T22:06:05.659Z,9.53
2018-08-17T22:08:34.297Z,11.60
2018-08-17T22:11:02.906Z,11.60
2018-08-17T22:13:36.806Z,14.03
2018-08-17T22:16:05.520Z,11.47
2018-08-17T22:18:34.117Z,11.37
2018-08-17T22:21:02.753Z,12.53
2018-08-17T22:23:31.758Z,10.07
2018-08-17T22:26:00.343Z,12.23
2018-08-17T22:28:28.996Z,13.60
2018-08-17T22:30:57.596Z,15.13
2018-08-17T22:33:26.382Z,15.27
2018-08-17T22:35:54.932Z,11.80
2018-08-17T22:38:23.952Z,10.00
2018-08-17T22:40:52.553Z,14.07
2018-08-17T22:43:21.215Z,13.23
2018-08-17T22:45:49.819Z,13.77
2018-08-17T22:48:50.948Z,10.30
2018-08-17T22:51:19.442Z,15.60
2018-08-17T22:53:48.225Z,8.90
2018-08-17T22:56:16.724Z,10.20
2018-08-17T22:58:48.257Z,10.07
2018-08-17T23:01:17.973Z,12.53
2018-08-17T23:03:53.818Z,8.70
2018-08-17T23:06:23.659Z,10.03
2018-08-17T23:08:52.239Z,12.00
2018-08-17T23:11:29.246Z,9.17
2018-08-17T23:14:00.475Z,12.10
2018-08-17T23:16:29.034Z,9.23
2018-08-17T23:18:57.597Z,14.07
2018-08-17T23:24:47.626Z,7.67
2018-08-17T23:27:16.229Z,10.90
2018-08-17T23:29:44.781Z,11.47
2018-08-17T23:32:13.307Z,10.43
2018-08-17T23:34:41.845Z,11.53
2018-08-17T23:37:10.504Z,16.83
2018-08-17T23:39:39.022Z,11.87
2018-08-17T23:42:07.718Z,10.37
2018-08-17T23:44:36.250Z,12.60
2018-08-17T23:47:05.110Z,18.33
2018-08-17T23:49:33.661Z,13.77
2018-08-17T23:52:02.146Z,10.63
2018-08-17T23:54:30.638Z,11.67
2018-08-17T23:56:59.216Z,9.30
2018-08-17T23:59:28.004Z,10.97
